createdAt,value
2022-12-02T00:01:34.466Z,88.67
2022-12-02T00:04:04.228Z,88.73
2022-12-02T00:06:35.194Z,88.66
2022-12-02T00:09:08.464Z,89.03
2022-12-02T00:11:38.096Z,89.02
2022-12-02T00:14:18.661Z,88.99
2022-12-02T00:16:47.656Z,88.97
2022-12-02T00:19:16.549Z,89.07
2022-12-02T00:21:47.383Z,88.40
2022-12-02T00:24:16.789Z,88.42
2022-12-02T00:26:46.395Z,88.25
2022-12-02T00:29:15.801Z,88.75
2022-12-02T00:31:44.632Z,88.64
2022-12-02T00:34:16.939Z,88.58
2022-12-02T00:36:47.803Z,87.77
2022-12-02T00:39:17.718Z,88.43
2022-12-02T00:41:47.156Z,88.63
2022-12-02T00:44:33.525Z,87.68
2022-12-02T00:47:02.210Z,88.33
2022-12-02T00:49:31.306Z,89.04
2022-12-02T00:52:01.879Z,87.79
2022-12-02T00:54:30.779Z,88.70
2022-12-02T00:57:02.489Z,88.23
2022-12-02T00:59:31.769Z,88.83
2022-12-02T01:02:01.324Z,88.33
2022-12-02T01:04:31.211Z,87.95
2022-12-02T01:07:01.847Z,87.73
2022-12-02T01:09:30.633Z,88.41
2022-12-02T01:11:59.732Z,88.05
2022-12-02T01:14:28.808Z,88.25
2022-12-02T01:16:57.792Z,88.06
2022-12-02T01:19:26.820Z,88.72
2022-12-02T01:21:55.708Z,89.13
2022-12-02T01:24:27.771Z,88.57
2022-12-02T01:26:56.766Z,88.94
2022-12-02T01:29:25.735Z,89.08
2022-12-02T01:31:55.983Z,89.07
2022-12-02T01:34:25.083Z,88.77
2022-12-02T01:36:54.694Z,89.17
2022-12-02T01:39:27.782Z,89.23
2022-12-02T01:41:56.465Z,89.39
2022-12-02T01:44:25.622Z,90.24
2022-12-02T01:46:54.691Z,90.28
2022-12-02T01:49:26.311Z,89.58
2022-12-02T01:52:03.997Z,90.54
2022-12-02T01:58:11.534Z,89.90
2022-12-02T02:00:41.269Z,89.95
2022-12-02T02:03:10.072Z,90.28
2022-12-02T02:05:39.459Z,89.88
2022-12-02T02:08:10.334Z,89.27
2022-12-02T02:10:42.340Z,89.99
2022-12-02T02:13:14.901Z,90.14
2022-12-02T02:15:45.443Z,90.35
2022-12-02T02:18:17.310Z,90.47
2022-12-02T02:20:46.387Z,90.61
2022-12-02T02:23:22.570Z,89.76
2022-12-02T02:25:54.941Z,90.38
2022-12-02T02:28:28.749Z,90.20
2022-12-02T02:30:58.875Z,89.33
2022-12-02T02:33:36.181Z,89.81
2022-12-02T02:36:08.822Z,89.84
2022-12-02T02:38:39.574Z,89.75
2022-12-02T02:41:09.899Z,89.12
2022-12-02T02:43:39.858Z,89.99
2022-12-02T02:46:12.922Z,89.82
2022-12-02T02:48:44.238Z,89.45
2022-12-02T02:51:14.085Z,90.03
2022-12-02T02:53:45.110Z,90.09
2022-12-02T02:56:16.175Z,89.90
2022-12-02T02:58:46.184Z,90.41
2022-12-02T03:01:17.129Z,89.76
2022-12-02T03:03:50.304Z,89.39
2022-12-02T03:06:21.733Z,90.24
2022-12-02T03:08:52.679Z,89.92
2022-12-02T03:11:22.151Z,90.40
2022-12-02T03:13:52.207Z,89.61
2022-12-02T03:16:23.287Z,90.19
2022-12-02T03:18:56.457Z,89.84
2022-12-02T03:21:26.780Z,89.35
2022-12-02T03:23:59.748Z,90.09
2022-12-02T03:26:30.407Z,89.69
2022-12-02T03:29:00.579Z,89.28
2022-12-02T03:31:30.398Z,89.59
2022-12-02T03:33:59.674Z,89.78
2022-12-02T03:36:28.979Z,89.68
2022-12-02T03:39:00.089Z,90.09
2022-12-02T03:41:29.757Z,89.53
2022-12-02T03:43:58.902Z,90.06
2022-12-02T03:46:28.475Z,89.04
2022-12-02T03:48:58.005Z,89.28
2022-12-02T03:51:27.920Z,89.84
2022-12-02T03:53:58.247Z,89.75
2022-12-02T03:56:30.330Z,89.66
2022-12-02T03:58:59.114Z,90.03
2022-12-02T04:01:30.152Z,89.29
2022-12-02T04:03:59.323Z,89.28
2022-12-02T04:06:28.438Z,89.16
2022-12-02T04:09:05.096Z,90.55
2022-12-02T04:11:36.037Z,89.82
2022-12-02T04:14:05.051Z,89.99
2022-12-02T04:16:33.854Z,90.17
2022-12-02T04:19:02.639Z,90.11
2022-12-02T04:21:34.684Z,90.01
2022-12-02T04:24:10.188Z,89.39
2022-12-02T04:26:50.603Z,89.79
2022-12-02T04:29:25.126Z,88.99
2022-12-02T04:31:54.687Z,89.94
2022-12-02T04:34:24.076Z,89.40
2022-12-02T04:36:53.335Z,90.53
2022-12-02T04:39:27.738Z,90.00
2022-12-02T04:41:58.085Z,89.59
2022-12-02T04:44:26.975Z,89.87
2022-12-02T04:46:56.176Z,90.50
2022-12-02T04:49:25.168Z,90.13
2022-12-02T04:51:54.349Z,89.66
2022-12-02T04:54:23.519Z,90.47
2022-12-02T04:56:52.461Z,90.19
2022-12-02T04:59:24.321Z,89.71
2022-12-02T05:01:53.418Z,89.67
2022-12-02T05:04:22.439Z,90.21
2022-12-02T05:06:51.710Z,90.34
2022-12-02T05:09:20.587Z,90.01
2022-12-02T05:11:49.496Z,89.74
2022-12-02T05:14:20.538Z,89.54
2022-12-02T05:16:53.893Z,89.03
2022-12-02T05:19:23.032Z,90.05
2022-12-02T05:21:52.127Z,88.96
2022-12-02T05:24:20.825Z,90.11
2022-12-02T05:26:52.265Z,90.13
2022-12-02T05:29:25.127Z,90.40
2022-12-02T05:31:56.937Z,89.90
2022-12-02T05:34:25.597Z,89.56
2022-12-02T05:36:54.287Z,89.50
2022-12-02T05:39:26.457Z,89.46
2022-12-02T05:41:57.393Z,90.22
2022-12-02T05:44:29.261Z,89.18
2022-12-02T05:47:04.030Z,89.01
2022-12-02T05:49:35.132Z,89.75
2022-12-02T05:52:11.602Z,89.92
2022-12-02T05:54:40.793Z,88.99
2022-12-02T05:57:12.228Z,88.76
2022-12-02T05:59:41.707Z,89.05
2022-12-02T06:02:24.989Z,88.91
2022-12-02T06:04:54.491Z,88.54
2022-12-02T06:07:23.282Z,89.03
2022-12-02T06:09:53.296Z,89.53
2022-12-02T06:12:24.730Z,89.87
2022-12-02T06:14:56.163Z,89.75
2022-12-02T06:17:26.637Z,89.53
2022-12-02T06:19:57.260Z,89.73
2022-12-02T06:22:29.511Z,89.26
2022-12-02T06:25:00.970Z,89.37
2022-12-02T06:27:30.695Z,88.97
2022-12-02T06:30:02.862Z,88.90
2022-12-02T06:33:22.231Z,89.05
2022-12-02T06:35:58.819Z,90.21
2022-12-02T06:38:48.901Z,90.87
2022-12-02T06:41:21.002Z,91.07
2022-12-02T06:44:03.885Z,91.20
2022-12-02T06:46:34.826Z,91.61
2022-12-02T06:49:15.801Z,92.24
2022-12-02T06:51:45.102Z,92.11
2022-12-02T06:54:18.453Z,93.43
2022-12-02T06:56:47.789Z,92.52
2022-12-02T06:59:18.229Z,92.59
2022-12-02T07:01:47.641Z,91.67
2022-12-02T07:04:46.313Z,90.86
2022-12-02T07:07:19.688Z,91.42
2022-12-02T07:09:49.848Z,89.78
2022-12-02T07:12:21.804Z,89.93
2022-12-02T07:14:52.716Z,90.60
2022-12-02T07:17:25.204Z,89.97
2022-12-02T07:20:00.550Z,90.34
2022-12-02T07:22:33.859Z,90.34
2022-12-02T07:25:23.029Z,90.79
2022-12-02T07:27:51.928Z,90.69
2022-12-02T07:30:24.259Z,91.60
2022-12-02T07:32:53.603Z,91.40
2022-12-02T07:35:49.608Z,91.19
2022-12-02T07:38:31.705Z,90.36
2022-12-02T07:41:08.397Z,90.88
2022-12-02T07:43:38.723Z,89.94
2022-12-02T07:46:07.757Z,90.04
2022-12-02T07:48:37.158Z,90.55
2022-12-02T07:51:07.754Z,89.69
2022-12-02T07:53:37.100Z,90.05
2022-12-02T07:56:06.860Z,89.57
2022-12-02T07:59:03.330Z,89.93
2022-12-02T08:01:24.541Z,90.31
2022-12-02T08:03:54.208Z,90.75
2022-12-02T08:06:24.453Z,90.23
2022-12-02T08:08:53.856Z,90.70
2022-12-02T08:11:22.592Z,90.48
2022-12-02T08:13:51.568Z,90.55
2022-12-02T08:16:20.472Z,89.94
2022-12-02T08:18:49.403Z,90.20
2022-12-02T08:21:18.211Z,90.24
2022-12-02T08:23:53.047Z,90.19
2022-12-02T08:26:22.200Z,91.05
2022-12-02T08:28:54.155Z,90.57
2022-12-02T08:31:23.446Z,91.34
2022-12-02T08:33:52.706Z,90.26
2022-12-02T08:36:22.089Z,90.21
2022-12-02T08:38:52.414Z,89.67
2022-12-02T08:41:21.083Z,89.81
2022-12-02T08:43:54.356Z,90.22
2022-12-02T08:46:27.793Z,89.55
2022-12-02T08:49:02.324Z,89.46
2022-12-02T08:51:31.527Z,90.01
2022-12-02T08:54:01.966Z,90.30
2022-12-02T08:56:31.474Z,90.62
2022-12-02T08:59:00.365Z,89.92
2022-12-02T09:01:29.517Z,89.87
2022-12-02T09:03:58.789Z,89.04
2022-12-02T09:06:29.899Z,89.63
2022-12-02T09:09:03.363Z,88.50
2022-12-02T09:11:32.399Z,88.60
2022-12-02T09:14:01.012Z,89.43
2022-12-02T09:16:33.035Z,89.94
2022-12-02T09:19:01.840Z,89.86
2022-12-02T09:21:30.666Z,89.37
2022-12-02T09:23:59.318Z,88.71
2022-12-02T09:26:29.597Z,88.61
2022-12-02T09:28:58.431Z,88.97
2022-12-02T09:31:27.485Z,88.95
2022-12-02T09:33:56.597Z,88.97
2022-12-02T09:36:31.700Z,89.29
2022-12-02T09:39:00.860Z,88.19
2022-12-02T09:41:31.235Z,88.06
2022-12-02T09:43:59.696Z,89.50
2022-12-02T09:46:28.910Z,88.50
2022-12-02T09:48:57.962Z,88.94
2022-12-02T09:51:26.685Z,89.21
2022-12-02T09:53:55.684Z,88.47
2022-12-02T09:56:26.384Z,89.60
2022-12-02T09:58:58.122Z,90.01
2022-12-02T10:01:27.867Z,89.86
2022-12-02T10:03:56.843Z,89.09
2022-12-02T10:06:27.183Z,88.72
2022-12-02T10:08:57.701Z,89.50
2022-12-02T10:11:28.536Z,89.03
2022-12-02T10:13:59.308Z,89.85
2022-12-02T10:16:31.777Z,89.27
2022-12-02T10:19:02.203Z,89.58
2022-12-02T10:21:31.473Z,88.63
2022-12-02T10:24:02.415Z,88.92
2022-12-02T10:26:44.918Z,88.90
2022-12-02T10:29:21.507Z,89.24
2022-12-02T10:31:58.828Z,89.08
2022-12-02T10:34:29.933Z,89.42
2022-12-02T10:37:09.666Z,89.32
2022-12-02T10:39:38.770Z,89.34
2022-12-02T10:42:16.989Z,89.27
2022-12-02T10:44:49.477Z,89.68
2022-12-02T10:47:25.473Z,89.57
2022-12-02T10:49:55.532Z,89.63
2022-12-02T10:52:28.013Z,89.61
2022-12-02T10:54:58.270Z,89.71
2022-12-02T10:57:28.869Z,89.82
2022-12-02T11:00:15.682Z,89.99
2022-12-02T11:02:48.062Z,89.09
2022-12-02T11:05:22.588Z,88.94
2022-12-02T11:07:57.497Z,89.73
2022-12-02T11:10:29.103Z,89.85
2022-12-02T11:13:04.218Z,88.69
2022-12-02T11:15:42.009Z,89.98
2022-12-02T11:18:13.357Z,89.11
2022-12-02T11:20:46.045Z,88.70
2022-12-02T11:23:23.827Z,88.89
2022-12-02T11:26:03.702Z,88.65
2022-12-02T11:28:52.242Z,89.09
2022-12-02T11:31:30.402Z,88.94
2022-12-02T11:34:07.737Z,89.23
2022-12-02T11:36:37.339Z,88.67
2022-12-02T11:39:07.863Z,88.66
2022-12-02T11:42:30.639Z,88.66
2022-12-02T11:45:48.236Z,88.44
2022-12-02T11:48:20.181Z,87.93
2022-12-02T11:50:49.330Z,88.05
2022-12-02T11:53:19.856Z,89.37
2022-12-02T11:55:52.843Z,88.84
2022-12-02T11:58:24.590Z,89.19
2022-12-02T12:01:03.632Z,89.74
2022-12-02T12:03:34.529Z,88.53
2022-12-02T12:06:08.700Z,88.85
2022-12-02T12:08:38.091Z,89.07
2022-12-02T12:11:18.558Z,89.45
2022-12-02T12:14:05.164Z,88.65
2022-12-02T12:16:35.719Z,89.04
2022-12-02T12:19:27.118Z,89.08
2022-12-02T12:21:58.870Z,89.85
2022-12-02T12:24:30.026Z,89.78
2022-12-02T12:27:00.242Z,90.01
2022-12-02T12:29:32.356Z,89.69
2022-12-02T12:32:02.734Z,89.11
2022-12-02T12:34:32.549Z,89.61
2022-12-02T12:37:04.409Z,88.57
2022-12-02T12:39:36.165Z,89.46
2022-12-02T12:42:05.264Z,89.77
2022-12-02T12:44:34.422Z,90.15
2022-12-02T12:47:05.464Z,89.75
2022-12-02T12:49:35.823Z,89.15
2022-12-02T12:52:06.572Z,89.72
2022-12-02T12:54:36.058Z,89.29
2022-12-02T12:57:05.350Z,89.64
2022-12-02T12:59:34.468Z,89.67
2022-12-02T13:02:03.750Z,89.23
2022-12-02T13:04:32.950Z,88.64
2022-12-02T13:07:02.275Z,88.80
2022-12-02T13:09:32.391Z,88.83
2022-12-02T13:12:01.695Z,88.76
2022-12-02T13:14:30.586Z,88.63
2022-12-02T13:17:00.454Z,89.22
2022-12-02T13:19:39.632Z,89.96
2022-12-02T13:22:08.628Z,88.97
2022-12-02T13:24:43.104Z,89.58
2022-12-02T13:27:12.515Z,90.17
2022-12-02T13:29:42.068Z,89.94
2022-12-02T13:32:11.419Z,89.98
2022-12-02T13:34:40.568Z,90.38
2022-12-02T13:37:09.758Z,90.71
2022-12-02T13:39:40.192Z,89.84
2022-12-02T13:42:09.028Z,89.78
2022-12-02T13:44:38.891Z,90.35
2022-12-02T13:47:10.446Z,90.68
2022-12-02T13:49:45.784Z,90.08
2022-12-02T13:52:30.409Z,90.43
2022-12-02T13:55:02.147Z,90.35
2022-12-02T13:57:31.368Z,90.70
2022-12-02T14:00:00.437Z,90.59
2022-12-02T14:02:29.588Z,90.21
2022-12-02T14:05:01.488Z,91.14
2022-12-02T14:07:35.020Z,91.11
2022-12-02T14:10:06.404Z,91.28
2022-12-02T14:12:35.284Z,90.91
2022-12-02T14:15:04.200Z,90.34
2022-12-02T14:17:39.570Z,89.78
2022-12-02T14:20:09.457Z,90.32
2022-12-02T14:22:38.129Z,91.02
2022-12-02T14:25:11.341Z,90.61
2022-12-02T14:27:50.372Z,91.06
2022-12-02T14:30:21.474Z,91.60
2022-12-02T14:32:49.992Z,90.39
2022-12-02T14:35:18.986Z,90.96
2022-12-02T14:37:50.508Z,90.78
2022-12-02T14:40:20.974Z,90.22
2022-12-02T14:42:49.847Z,91.09
2022-12-02T14:45:20.984Z,91.91
2022-12-02T14:47:49.896Z,91.27
2022-12-02T14:50:18.762Z,91.20
2022-12-02T14:52:49.036Z,92.08
2022-12-02T14:55:18.303Z,92.72
2022-12-02T14:57:49.054Z,91.72
2022-12-02T15:00:19.272Z,91.72
2022-12-02T15:02:48.470Z,92.15
2022-12-02T15:05:18.596Z,91.89
2022-12-02T15:07:47.853Z,91.82
2022-12-02T15:10:17.732Z,92.54
2022-12-02T15:12:46.392Z,92.10
2022-12-02T15:15:37.401Z,91.79
2022-12-02T15:18:07.719Z,92.35
2022-12-02T15:20:39.269Z,92.70
2022-12-02T15:23:08.182Z,92.11
2022-12-02T15:25:37.116Z,91.86
2022-12-02T15:28:05.957Z,92.52
2022-12-02T15:30:38.901Z,92.51
2022-12-02T15:33:13.368Z,91.86
2022-12-02T15:35:42.463Z,91.99
2022-12-02T15:38:11.426Z,92.05
2022-12-02T15:40:40.425Z,91.59
2022-12-02T15:43:09.596Z,92.61
2022-12-02T15:45:42.230Z,91.26
2022-12-02T15:48:11.227Z,91.70
2022-12-02T15:50:40.096Z,91.33
2022-12-02T15:53:09.111Z,92.10
2022-12-02T15:55:38.211Z,91.80
2022-12-02T15:58:10.030Z,91.92
2022-12-02T16:00:42.676Z,91.28
2022-12-02T16:03:41.966Z,92.04
2022-12-02T16:06:38.899Z,91.67
2022-12-02T16:09:07.843Z,91.01
2022-12-02T16:11:36.790Z,90.74
2022-12-02T16:14:05.780Z,90.94
2022-12-02T16:16:36.388Z,91.10
2022-12-02T16:19:05.410Z,91.44
2022-12-02T16:21:34.689Z,92.00
2022-12-02T16:24:03.907Z,92.08
2022-12-02T16:26:32.965Z,92.31
2022-12-02T16:29:02.508Z,92.02
2022-12-02T16:31:31.693Z,91.46
2022-12-02T16:34:04.389Z,91.71
2022-12-02T16:36:33.589Z,92.48
2022-12-02T16:39:02.481Z,92.64
2022-12-02T16:41:31.479Z,92.34
2022-12-02T16:44:00.572Z,92.71
2022-12-02T16:46:31.452Z,93.22
2022-12-02T16:49:01.878Z,93.38
2022-12-02T16:51:30.728Z,92.59
2022-12-02T16:54:00.132Z,92.49
2022-12-02T16:59:41.327Z,92.28
2022-12-02T17:02:11.014Z,92.74
2022-12-02T17:04:41.964Z,92.63
2022-12-02T17:07:11.080Z,92.17
2022-12-02T17:09:40.487Z,92.19
2022-12-02T17:12:09.786Z,93.13
2022-12-02T17:14:38.987Z,92.50
2022-12-02T17:17:30.330Z,92.73
2022-12-02T17:19:58.543Z,93.45
2022-12-02T17:22:27.783Z,92.85
2022-12-02T17:24:56.672Z,93.27
2022-12-02T17:27:26.176Z,92.60
2022-12-02T17:29:55.201Z,92.92
2022-12-02T17:32:24.355Z,93.08
2022-12-02T17:34:56.334Z,92.66
2022-12-02T17:37:26.961Z,92.76
2022-12-02T17:39:56.149Z,91.91
2022-12-02T17:42:25.466Z,92.38
2022-12-02T17:44:55.090Z,91.34
2022-12-02T17:47:24.173Z,92.07
2022-12-02T17:49:56.309Z,91.82
2022-12-02T17:52:28.333Z,92.35
2022-12-02T17:54:57.914Z,92.06
2022-12-02T17:57:26.908Z,91.90
2022-12-02T17:59:56.000Z,93.13
2022-12-02T18:02:25.166Z,93.57
2022-12-02T18:04:54.461Z,92.51
2022-12-02T18:07:24.091Z,92.61
2022-12-02T18:09:55.190Z,92.30
2022-12-02T18:12:24.767Z,92.50
2022-12-02T18:14:55.612Z,92.39
2022-12-02T18:17:30.645Z,91.79
2022-12-02T18:19:59.941Z,91.54
2022-12-02T18:22:29.351Z,92.47
2022-12-02T18:24:59.977Z,92.00
2022-12-02T18:27:29.580Z,91.88
2022-12-02T18:29:58.479Z,91.74
2022-12-02T18:32:27.779Z,91.52
2022-12-02T18:34:56.771Z,92.07
2022-12-02T18:37:26.072Z,91.58
2022-12-02T18:39:55.817Z,91.34
2022-12-02T18:42:26.723Z,92.54
2022-12-02T18:44:55.852Z,92.55
2022-12-02T18:47:24.611Z,91.97
2022-12-02T18:50:00.776Z,91.54
2022-12-02T18:52:29.579Z,91.64
2022-12-02T18:54:58.455Z,92.37
2022-12-02T18:57:29.192Z,92.23
2022-12-02T19:00:01.049Z,91.17
2022-12-02T19:02:30.318Z,91.88
2022-12-02T19:04:59.429Z,91.45
2022-12-02T19:07:29.175Z,91.05
2022-12-02T19:09:58.255Z,90.61
2022-12-02T19:12:28.683Z,91.32
2022-12-02T19:14:57.778Z,91.74
2022-12-02T19:17:27.520Z,91.19
2022-12-02T19:20:02.580Z,91.52
2022-12-02T19:22:31.524Z,91.17
2022-12-02T19:25:00.569Z,91.42
2022-12-02T19:30:20.518Z,91.50
2022-12-02T19:32:50.414Z,90.82
2022-12-02T19:35:19.280Z,91.38
2022-12-02T19:37:50.580Z,90.30
2022-12-02T19:40:19.940Z,90.80
2022-12-02T19:42:50.360Z,90.92
2022-12-02T19:45:19.808Z,90.75
2022-12-02T19:47:50.954Z,91.28
2022-12-02T19:50:20.152Z,90.14
2022-12-02T19:52:49.248Z,90.19
2022-12-02T19:55:18.754Z,90.36
2022-12-02T19:57:49.182Z,90.17
2022-12-02T20:00:19.083Z,90.12
2022-12-02T20:02:48.119Z,90.03
2022-12-02T20:05:19.136Z,89.98
2022-12-02T20:07:50.978Z,90.86
2022-12-02T20:10:20.305Z,89.66
2022-12-02T20:12:52.365Z,89.88
2022-12-02T20:15:39.433Z,90.51
2022-12-02T20:18:10.579Z,90.50
2022-12-02T20:21:07.827Z,90.60
2022-12-02T20:23:39.332Z,90.63
2022-12-02T20:26:08.332Z,90.25
2022-12-02T20:28:38.963Z,90.34
2022-12-02T20:31:07.775Z,90.45
2022-12-02T20:33:37.036Z,89.02
2022-12-02T20:36:06.253Z,90.20
2022-12-02T20:38:35.383Z,89.81
2022-12-02T20:41:04.344Z,89.97
2022-12-02T20:43:33.406Z,90.11
2022-12-02T20:46:03.765Z,89.73
2022-12-02T20:48:34.398Z,89.18
2022-12-02T20:51:03.187Z,88.88
2022-12-02T20:53:32.314Z,89.46
2022-12-02T20:56:00.817Z,88.62
2022-12-02T20:58:29.657Z,88.88
2022-12-02T21:00:58.697Z,89.32
2022-12-02T21:03:28.979Z,88.69
2022-12-02T21:05:58.074Z,88.48
2022-12-02T21:08:26.658Z,89.56
2022-12-02T21:10:55.141Z,89.47
2022-12-02T21:13:24.135Z,89.51
2022-12-02T21:15:53.385Z,90.07
2022-12-02T21:18:22.533Z,89.79
2022-12-02T21:20:52.959Z,89.65
2022-12-02T21:23:21.853Z,89.40
2022-12-02T21:25:50.601Z,89.20
2022-12-02T21:28:19.840Z,89.75
2022-12-02T21:30:48.632Z,89.57
2022-12-02T21:33:17.873Z,88.88
2022-12-02T21:35:46.767Z,89.60
2022-12-02T21:38:17.459Z,89.31
2022-12-02T21:40:46.858Z,89.38
2022-12-02T21:43:17.903Z,89.62
2022-12-02T21:45:50.330Z,89.92
2022-12-02T21:48:19.530Z,89.46
2022-12-02T21:50:47.994Z,89.59
2022-12-02T21:53:17.808Z,89.54
2022-12-02T21:55:46.557Z,89.36
2022-12-02T21:58:15.454Z,89.26
2022-12-02T22:00:44.731Z,89.10
2022-12-02T22:03:15.235Z,89.48
2022-12-02T22:05:44.071Z,89.52
2022-12-02T22:08:12.719Z,89.61
2022-12-02T22:10:42.614Z,89.52
2022-12-02T22:13:18.951Z,89.03
2022-12-02T22:15:47.858Z,89.40
2022-12-02T22:18:16.695Z,89.15
2022-12-02T22:20:45.409Z,88.51
2022-12-02T22:23:14.300Z,88.88
2022-12-02T22:25:44.560Z,88.47
2022-12-02T22:28:13.292Z,88.40
2022-12-02T22:30:42.409Z,88.76
2022-12-02T22:33:11.491Z,88.93
2022-12-02T22:35:40.501Z,88.70
2022-12-02T22:38:14.415Z,88.61
2022-12-02T22:40:45.144Z,89.10
2022-12-02T22:43:14.139Z,89.26
2022-12-02T22:45:43.372Z,89.01
2022-12-02T22:48:12.742Z,89.48
2022-12-02T22:50:41.940Z,89.96
2022-12-02T22:53:11.139Z,89.32
